sensor_id;sensor_type;location;lat;lon;timestamp;temperature;humidity
75281;HTU21D;63874;47.230;39.620;2023-06-10T00:01:42;20.74;50.16
75281;HTU21D;63874;47.230;39.620;2023-06-10T00:04:08;20.71;50.49
75281;HTU21D;63874;47.230;39.620;2023-06-10T00:06:34;20.66;50.56
75281;HTU21D;63874;47.230;39.620;2023-06-10T00:09:06;20.63;50.60
75281;HTU21D;63874;47.230;39.620;2023-06-10T00:11:40;20.59;50.64
75281;HTU21D;63874;47.230;39.620;2023-06-10T00:14:06;20.54;50.68
75281;HTU21D;63874;47.230;39.620;2023-06-10T00:16:32;20.51;50.89
75281;HTU21D;63874;47.230;39.620;2023-06-10T00:19:03;20.53;51.02
75281;HTU21D;63874;47.230;39.620;2023-06-10T00:21:31;20.51;51.17
75281;HTU21D;63874;47.230;39.620;2023-06-10T00:24:07;20.50;51.26
75281;HTU21D;63874;47.230;39.620;2023-06-10T00:26:35;20.48;51.32
75281;HTU21D;63874;47.230;39.620;2023-06-10T00:29:01;20.45;51.32
75281;HTU21D;63874;47.230;39.620;2023-06-10T00:31:27;20.43;51.47
75281;HTU21D;63874;47.230;39.620;2023-06-10T00:33:53;20.46;51.57
75281;HTU21D;63874;47.230;39.620;2023-06-10T00:36:19;20.43;51.62
75281;HTU21D;63874;47.230;39.620;2023-06-10T00:38:45;20.44;51.59
75281;HTU21D;63874;47.230;39.620;2023-06-10T00:41:10;20.40;51.70
75281;HTU21D;63874;47.230;39.620;2023-06-10T00:43:36;20.39;51.64
75281;HTU21D;63874;47.230;39.620;2023-06-10T00:46:02;20.39;51.69
75281;HTU21D;63874;47.230;39.620;2023-06-10T00:48:29;20.39;51.72
75281;HTU21D;63874;47.230;39.620;2023-06-10T00:50:56;20.37;51.82
75281;HTU21D;63874;47.230;39.620;2023-06-10T00:53:22;20.36;51.79
75281;HTU21D;63874;47.230;39.620;2023-06-10T00:55:48;20.34;51.79
75281;HTU21D;63874;47.230;39.620;2023-06-10T00:58:15;20.34;51.81
75281;HTU21D;63874;47.230;39.620;2023-06-10T01:00:45;20.32;51.82
75281;HTU21D;63874;47.230;39.620;2023-06-10T01:03:11;20.32;51.77
75281;HTU21D;63874;47.230;39.620;2023-06-10T01:05:40;20.30;51.85
75281;HTU21D;63874;47.230;39.620;2023-06-10T01:08:22;20.34;51.82
75281;HTU21D;63874;47.230;39.620;2023-06-10T01:10:57;20.32;51.83
75281;HTU21D;63874;47.230;39.620;2023-06-10T01:13:25;20.34;51.89
75281;HTU21D;63874;47.230;39.620;2023-06-10T01:15:55;20.32;51.95
75281;HTU21D;63874;47.230;39.620;2023-06-10T01:18:22;20.30;51.91
75281;HTU21D;63874;47.230;39.620;2023-06-10T01:20:50;20.30;51.85
75281;HTU21D;63874;47.230;39.620;2023-06-10T01:23:17;20.27;51.80
75281;HTU21D;63874;47.230;39.620;2023-06-10T01:25:49;20.26;51.85
75281;HTU21D;63874;47.230;39.620;2023-06-10T01:31:18;20.24;51.95
75281;HTU21D;63874;47.230;39.620;2023-06-10T01:33:50;20.21;51.84
75281;HTU21D;63874;47.230;39.620;2023-06-10T01:36:18;20.20;51.95
75281;HTU21D;63874;47.230;39.620;2023-06-10T01:38:47;20.18;51.96
75281;HTU21D;63874;47.230;39.620;2023-06-10T01:41:16;20.18;51.90
75281;HTU21D;63874;47.230;39.620;2023-06-10T01:43:44;20.19;51.96
75281;HTU21D;63874;47.230;39.620;2023-06-10T01:46:10;20.16;51.96
75281;HTU21D;63874;47.230;39.620;2023-06-10T01:48:38;20.18;51.97
75281;HTU21D;63874;47.230;39.620;2023-06-10T01:51:04;20.17;52.01
75281;HTU21D;63874;47.230;39.620;2023-06-10T01:53:30;20.18;52.01
75281;HTU21D;63874;47.230;39.620;2023-06-10T01:55:56;20.18;52.10
75281;HTU21D;63874;47.230;39.620;2023-06-10T01:58:26;20.18;52.11
75281;HTU21D;63874;47.230;39.620;2023-06-10T02:00:52;20.16;52.08
75281;HTU21D;63874;47.230;39.620;2023-06-10T02:03:17;20.15;52.14
75281;HTU21D;63874;47.230;39.620;2023-06-10T02:05:44;20.15;52.14
75281;HTU21D;63874;47.230;39.620;2023-06-10T02:08:09;20.14;52.04
75281;HTU21D;63874;47.230;39.620;2023-06-10T02:10:35;20.16;52.11
75281;HTU21D;63874;47.230;39.620;2023-06-10T02:13:02;20.18;52.16
75281;HTU21D;63874;47.230;39.620;2023-06-10T02:15:27;20.22;52.08
75281;HTU21D;63874;47.230;39.620;2023-06-10T02:17:53;20.28;52.09
75281;HTU21D;63874;47.230;39.620;2023-06-10T02:20:20;20.32;51.93
75281;HTU21D;63874;47.230;39.620;2023-06-10T02:22:46;20.37;51.78
75281;HTU21D;63874;47.230;39.620;2023-06-10T02:25:12;20.43;51.66
75281;HTU21D;63874;47.230;39.620;2023-06-10T02:27:38;20.45;51.66
75281;HTU21D;63874;47.230;39.620;2023-06-10T02:30:04;20.47;51.61
75281;HTU21D;63874;47.230;39.620;2023-06-10T02:32:34;20.48;51.58
75281;HTU21D;63874;47.230;39.620;2023-06-10T02:35:00;20.49;51.59
75281;HTU21D;63874;47.230;39.620;2023-06-10T02:37:28;20.51;51.56
75281;HTU21D;63874;47.230;39.620;2023-06-10T02:39:55;20.54;51.58
75281;HTU21D;63874;47.230;39.620;2023-06-10T02:42:21;20.55;51.71
75281;HTU21D;63874;47.230;39.620;2023-06-10T02:44:48;20.55;51.72
75281;HTU21D;63874;47.230;39.620;2023-06-10T02:47:20;20.56;51.79
75281;HTU21D;63874;47.230;39.620;2023-06-10T02:49:46;20.56;51.79
75281;HTU21D;63874;47.230;39.620;2023-06-10T02:52:13;20.55;51.91
75281;HTU21D;63874;47.230;39.620;2023-06-10T02:54:39;20.57;52.04
75281;HTU21D;63874;47.230;39.620;2023-06-10T02:57:07;20.59;52.17
75281;HTU21D;63874;47.230;39.620;2023-06-10T02:59:33;20.58;52.14
75281;HTU21D;63874;47.230;39.620;2023-06-10T03:01:59;20.61;52.25
75281;HTU21D;63874;47.230;39.620;2023-06-10T03:04:29;20.63;52.33
75281;HTU21D;63874;47.230;39.620;2023-06-10T03:07:07;20.66;52.34
75281;HTU21D;63874;47.230;39.620;2023-06-10T03:09:34;20.71;52.46
75281;HTU21D;63874;47.230;39.620;2023-06-10T03:12:03;20.75;52.43
75281;HTU21D;63874;47.230;39.620;2023-06-10T03:14:34;20.78;52.37
75281;HTU21D;63874;47.230;39.620;2023-06-10T03:17:01;20.84;52.40
75281;HTU21D;63874;47.230;39.620;2023-06-10T03:19:29;20.87;52.30
75281;HTU21D;63874;47.230;39.620;2023-06-10T03:22:15;20.92;52.29
75281;HTU21D;63874;47.230;39.620;2023-06-10T03:24:51;20.95;52.18
75281;HTU21D;63874;47.230;39.620;2023-06-10T03:27:19;21.01;52.14
75281;HTU21D;63874;47.230;39.620;2023-06-10T03:29:48;21.07;52.11
75281;HTU21D;63874;47.230;39.620;2023-06-10T03:32:15;21.15;52.01
75281;HTU21D;63874;47.230;39.620;2023-06-10T03:34:43;21.21;51.94
75281;HTU21D;63874;47.230;39.620;2023-06-10T03:37:10;21.24;51.85
75281;HTU21D;63874;47.230;39.620;2023-06-10T03:39:36;21.29;51.85
75281;HTU21D;63874;47.230;39.620;2023-06-10T03:42:02;21.32;51.83
75281;HTU21D;63874;47.230;39.620;2023-06-10T03:44:30;21.31;51.72
75281;HTU21D;63874;47.230;39.620;2023-06-10T03:46:56;21.33;51.62
75281;HTU21D;63874;47.230;39.620;2023-06-10T03:49:25;21.34;51.52
75281;HTU21D;63874;47.230;39.620;2023-06-10T03:51:53;21.34;51.43
75281;HTU21D;63874;47.230;39.620;2023-06-10T03:54:20;21.35;51.33
75281;HTU21D;63874;47.230;39.620;2023-06-10T03:56:46;21.40;51.17
75281;HTU21D;63874;47.230;39.620;2023-06-10T03:59:14;21.49;51.06
75281;HTU21D;63874;47.230;39.620;2023-06-10T04:01:39;21.61;50.85
75281;HTU21D;63874;47.230;39.620;2023-06-10T04:04:07;21.75;50.55
75281;HTU21D;63874;47.230;39.620;2023-06-10T04:06:34;21.84;50.16
75281;HTU21D;63874;47.230;39.620;2023-06-10T04:09:00;21.91;49.98
75281;HTU21D;63874;47.230;39.620;2023-06-10T04:11:27;21.98;49.82
75281;HTU21D;63874;47.230;39.620;2023-06-10T04:13:54;22.05;49.55
75281;HTU21D;63874;47.230;39.620;2023-06-10T04:16:20;22.08;49.46
75281;HTU21D;63874;47.230;39.620;2023-06-10T04:18:48;22.16;49.33
75281;HTU21D;63874;47.230;39.620;2023-06-10T04:21:14;22.23;48.97
75281;HTU21D;63874;47.230;39.620;2023-06-10T04:23:40;22.28;48.76
75281;HTU21D;63874;47.230;39.620;2023-06-10T04:26:07;22.33;48.48
75281;HTU21D;63874;47.230;39.620;2023-06-10T04:28:33;22.37;48.19
75281;HTU21D;63874;47.230;39.620;2023-06-10T04:30:59;22.38;47.80
75281;HTU21D;63874;47.230;39.620;2023-06-10T04:33:27;22.40;47.62
75281;HTU21D;63874;47.230;39.620;2023-06-10T04:35:54;22.43;47.38
75281;HTU21D;63874;47.230;39.620;2023-06-10T04:38:22;22.42;47.28
75281;HTU21D;63874;47.230;39.620;2023-06-10T04:40:48;22.40;47.18
75281;HTU21D;63874;47.230;39.620;2023-06-10T04:43:15;22.42;47.02
75281;HTU21D;63874;47.230;39.620;2023-06-10T04:45:44;22.47;46.99
75281;HTU21D;63874;47.230;39.620;2023-06-10T04:48:11;22.52;46.93
75281;HTU21D;63874;47.230;39.620;2023-06-10T04:50:37;22.62;46.82
75281;HTU21D;63874;47.230;39.620;2023-06-10T04:53:04;22.70;46.79
75281;HTU21D;63874;47.230;39.620;2023-06-10T04:55:35;22.83;46.67
75281;HTU21D;63874;47.230;39.620;2023-06-10T04:58:01;22.96;46.53
75281;HTU21D;63874;47.230;39.620;2023-06-10T05:00:39;23.05;46.38
75281;HTU21D;63874;47.230;39.620;2023-06-10T05:03:05;23.12;46.50
75281;HTU21D;63874;47.230;39.620;2023-06-10T05:05:31;23.17;46.44
75281;HTU21D;63874;47.230;39.620;2023-06-10T05:07:56;23.17;46.62
75281;HTU21D;63874;47.230;39.620;2023-06-10T05:10:22;23.20;46.72
75281;HTU21D;63874;47.230;39.620;2023-06-10T05:12:48;23.21;46.96
75281;HTU21D;63874;47.230;39.620;2023-06-10T05:15:14;23.21;47.09
75281;HTU21D;63874;47.230;39.620;2023-06-10T05:17:41;23.17;47.28
75281;HTU21D;63874;47.230;39.620;2023-06-10T05:20:07;23.17;47.43
75281;HTU21D;63874;47.230;39.620;2023-06-10T05:22:33;23.15;47.52
75281;HTU21D;63874;47.230;39.620;2023-06-10T05:25:00;23.10;47.79
75281;HTU21D;63874;47.230;39.620;2023-06-10T05:27:25;23.07;47.94
75281;HTU21D;63874;47.230;39.620;2023-06-10T05:29:51;23.03;48.15
75281;HTU21D;63874;47.230;39.620;2023-06-10T05:32:17;23.01;48.34
75281;HTU21D;63874;47.230;39.620;2023-06-10T05:34:43;23.02;48.51
75281;HTU21D;63874;47.230;39.620;2023-06-10T05:37:09;23.01;48.65
75281;HTU21D;63874;47.230;39.620;2023-06-10T05:39:36;23.00;48.87
75281;HTU21D;63874;47.230;39.620;2023-06-10T05:42:06;23.03;48.93
75281;HTU21D;63874;47.230;39.620;2023-06-10T05:44:33;23.07;49.02
75281;HTU21D;63874;47.230;39.620;2023-06-10T05:46:58;23.08;49.16
75281;HTU21D;63874;47.230;39.620;2023-06-10T05:49:24;23.11;49.19
75281;HTU21D;63874;47.230;39.620;2023-06-10T05:51:50;23.15;49.08
75281;HTU21D;63874;47.230;39.620;2023-06-10T05:54:18;23.16;49.05
75281;HTU21D;63874;47.230;39.620;2023-06-10T05:56:44;23.22;49.01
75281;HTU21D;63874;47.230;39.620;2023-06-10T05:59:10;23.29;48.96
75281;HTU21D;63874;47.230;39.620;2023-06-10T06:01:36;23.35;48.92
75281;HTU21D;63874;47.230;39.620;2023-06-10T06:04:02;23.46;48.60
75281;HTU21D;63874;47.230;39.620;2023-06-10T06:06:28;23.54;48.55
75281;HTU21D;63874;47.230;39.620;2023-06-10T06:08:59;23.72;48.40
75281;HTU21D;63874;47.230;39.620;2023-06-10T06:11:25;23.89;48.00
75281;HTU21D;63874;47.230;39.620;2023-06-10T06:13:51;24.06;47.54
75281;HTU21D;63874;47.230;39.620;2023-06-10T06:16:17;24.23;47.34
75281;HTU21D;63874;47.230;39.620;2023-06-10T06:18:44;24.33;46.93
75281;HTU21D;63874;47.230;39.620;2023-06-10T06:21:09;24.41;46.45
75281;HTU21D;63874;47.230;39.620;2023-06-10T06:23:35;24.46;46.37
75281;HTU21D;63874;47.230;39.620;2023-06-10T06:26:01;24.51;46.46
75281;HTU21D;63874;47.230;39.620;2023-06-10T06:28:27;24.64;46.12
75281;HTU21D;63874;47.230;39.620;2023-06-10T06:30:55;24.84;45.81
75281;HTU21D;63874;47.230;39.620;2023-06-10T06:33:21;24.94;45.37
75281;HTU21D;63874;47.230;39.620;2023-06-10T06:35:47;25.03;45.18
75281;HTU21D;63874;47.230;39.620;2023-06-10T06:38:13;25.10;44.99
75281;HTU21D;63874;47.230;39.620;2023-06-10T06:40:39;25.20;45.06
75281;HTU21D;63874;47.230;39.620;2023-06-10T06:43:05;25.43;44.73
75281;HTU21D;63874;47.230;39.620;2023-06-10T06:45:36;25.62;43.80
75281;HTU21D;63874;47.230;39.620;2023-06-10T06:48:03;25.81;43.63
75281;HTU21D;63874;47.230;39.620;2023-06-10T06:50:30;25.93;42.57
75281;HTU21D;63874;47.230;39.620;2023-06-10T06:52:55;25.99;41.87
75281;HTU21D;63874;47.230;39.620;2023-06-10T06:55:21;26.01;41.84
75281;HTU21D;63874;47.230;39.620;2023-06-10T06:57:47;26.07;41.55
75281;HTU21D;63874;47.230;39.620;2023-06-10T07:00:13;26.03;40.51
75281;HTU21D;63874;47.230;39.620;2023-06-10T07:02:39;26.02;40.58
75281;HTU21D;63874;47.230;39.620;2023-06-10T07:05:05;26.01;39.87
75281;HTU21D;63874;47.230;39.620;2023-06-10T07:07:33;26.02;40.06
75281;HTU21D;63874;47.230;39.620;2023-06-10T07:10:01;26.11;39.72
75281;HTU21D;63874;47.230;39.620;2023-06-10T07:12:27;26.19;39.43
75281;HTU21D;63874;47.230;39.620;2023-06-10T07:15:12;26.19;39.37
75281;HTU21D;63874;47.230;39.620;2023-06-10T07:17:38;26.21;38.75
75281;HTU21D;63874;47.230;39.620;2023-06-10T07:20:04;26.32;38.94
75281;HTU21D;63874;47.230;39.620;2023-06-10T07:22:31;26.47;39.06
75281;HTU21D;63874;47.230;39.620;2023-06-10T07:24:57;26.61;38.62
75281;HTU21D;63874;47.230;39.620;2023-06-10T07:27:23;26.71;38.34
75281;HTU21D;63874;47.230;39.620;2023-06-10T07:29:50;26.81;38.49
75281;HTU21D;63874;47.230;39.620;2023-06-10T07:32:16;26.89;37.72
75281;HTU21D;63874;47.230;39.620;2023-06-10T07:34:42;26.85;38.01
75281;HTU21D;63874;47.230;39.620;2023-06-10T07:37:08;26.87;38.18
75281;HTU21D;63874;47.230;39.620;2023-06-10T07:39:37;26.92;38.09
75281;HTU21D;63874;47.230;39.620;2023-06-10T07:42:03;27.02;37.61
75281;HTU21D;63874;47.230;39.620;2023-06-10T07:44:30;27.04;37.93
75281;HTU21D;63874;47.230;39.620;2023-06-10T07:46:55;27.08;37.72
75281;HTU21D;63874;47.230;39.620;2023-06-10T07:49:23;27.12;37.59
75281;HTU21D;63874;47.230;39.620;2023-06-10T07:51:50;27.11;37.82
75281;HTU21D;63874;47.230;39.620;2023-06-10T07:54:16;27.12;37.52
75281;HTU21D;63874;47.230;39.620;2023-06-10T07:56:56;27.12;37.55
75281;HTU21D;63874;47.230;39.620;2023-06-10T07:59:22;27.14;37.53
75281;HTU21D;63874;47.230;39.620;2023-06-10T08:01:47;27.20;37.38
75281;HTU21D;63874;47.230;39.620;2023-06-10T08:04:14;27.26;37.40
75281;HTU21D;63874;47.230;39.620;2023-06-10T08:06:42;27.37;37.10
75281;HTU21D;63874;47.230;39.620;2023-06-10T08:09:08;27.37;37.12
75281;HTU21D;63874;47.230;39.620;2023-06-10T08:11:36;27.45;36.70
75281;HTU21D;63874;47.230;39.620;2023-06-10T08:14:07;27.53;36.42
75281;HTU21D;63874;47.230;39.620;2023-06-10T08:16:33;27.64;36.33
75281;HTU21D;63874;47.230;39.620;2023-06-10T08:19:00;27.80;36.53
75281;HTU21D;63874;47.230;39.620;2023-06-10T08:21:26;27.96;36.08
75281;HTU21D;63874;47.230;39.620;2023-06-10T08:23:54;28.04;36.04
75281;HTU21D;63874;47.230;39.620;2023-06-10T08:26:20;28.13;35.39
75281;HTU21D;63874;47.230;39.620;2023-06-10T08:28:46;28.17;35.26
75281;HTU21D;63874;47.230;39.620;2023-06-10T08:31:11;28.20;34.94
75281;HTU21D;63874;47.230;39.620;2023-06-10T08:33:37;28.31;34.44
75281;HTU21D;63874;47.230;39.620;2023-06-10T08:36:03;28.32;32.10
75281;HTU21D;63874;47.230;39.620;2023-06-10T08:38:29;28.30;32.02
75281;HTU21D;63874;47.230;39.620;2023-06-10T08:40:57;28.43;32.37
75281;HTU21D;63874;47.230;39.620;2023-06-10T08:43:39;28.64;32.07
75281;HTU21D;63874;47.230;39.620;2023-06-10T08:46:09;28.85;32.13
75281;HTU21D;63874;47.230;39.620;2023-06-10T08:48:40;29.02;32.02
75281;HTU21D;63874;47.230;39.620;2023-06-10T08:51:10;29.08;31.76
75281;HTU21D;63874;47.230;39.620;2023-06-10T08:53:38;29.04;31.04
75281;HTU21D;63874;47.230;39.620;2023-06-10T08:56:06;28.99;30.90
75281;HTU21D;63874;47.230;39.620;2023-06-10T08:58:33;28.93;30.60
75281;HTU21D;63874;47.230;39.620;2023-06-10T09:01:06;28.88;30.90
75281;HTU21D;63874;47.230;39.620;2023-06-10T09:03:32;28.88;30.80
75281;HTU21D;63874;47.230;39.620;2023-06-10T09:06:02;28.93;31.07
75281;HTU21D;63874;47.230;39.620;2023-06-10T09:08:29;29.01;31.06
75281;HTU21D;63874;47.230;39.620;2023-06-10T09:10:56;29.01;30.67
75281;HTU21D;63874;47.230;39.620;2023-06-10T09:13:23;29.00;30.70
75281;HTU21D;63874;47.230;39.620;2023-06-10T09:15:49;29.00;31.03
75281;HTU21D;63874;47.230;39.620;2023-06-10T09:18:16;29.28;31.21
75281;HTU21D;63874;47.230;39.620;2023-06-10T09:20:43;30.16;30.29
75281;HTU21D;63874;47.230;39.620;2023-06-10T09:23:09;31.54;28.12
75281;HTU21D;63874;47.230;39.620;2023-06-10T09:25:38;32.77;25.84
75281;HTU21D;63874;47.230;39.620;2023-06-10T09:28:30;33.78;24.47
75281;HTU21D;63874;47.230;39.620;2023-06-10T09:31:04;34.79;23.41
75281;HTU21D;63874;47.230;39.620;2023-06-10T09:33:37;35.48;22.42
75281;HTU21D;63874;47.230;39.620;2023-06-10T09:36:07;36.23;21.51
75281;HTU21D;63874;47.230;39.620;2023-06-10T09:38:34;36.72;20.70
75281;HTU21D;63874;47.230;39.620;2023-06-10T09:41:00;37.21;19.96
75281;HTU21D;63874;47.230;39.620;2023-06-10T09:43:39;37.90;19.42
75281;HTU21D;63874;47.230;39.620;2023-06-10T09:46:05;38.04;18.69
75281;HTU21D;63874;47.230;39.620;2023-06-10T09:48:35;38.04;18.86
75281;HTU21D;63874;47.230;39.620;2023-06-10T09:51:16;38.16;18.27
75281;HTU21D;63874;47.230;39.620;2023-06-10T09:53:51;38.10;18.38
75281;HTU21D;63874;47.230;39.620;2023-06-10T09:56:18;38.21;18.38
75281;HTU21D;63874;47.230;39.620;2023-06-10T09:58:44;38.74;17.91
75281;HTU21D;63874;47.230;39.620;2023-06-10T10:01:13;39.03;17.69
75281;HTU21D;63874;47.230;39.620;2023-06-10T10:03:49;38.68;18.09
75281;HTU21D;63874;47.230;39.620;2023-06-10T10:06:21;38.46;18.33
75281;HTU21D;63874;47.230;39.620;2023-06-10T10:08:49;37.73;18.77
75281;HTU21D;63874;47.230;39.620;2023-06-10T10:11:17;37.10;19.68
75281;HTU21D;63874;47.230;39.620;2023-06-10T10:13:45;36.93;19.89
75281;HTU21D;63874;47.230;39.620;2023-06-10T10:16:20;37.29;19.60
75281;HTU21D;63874;47.230;39.620;2023-06-10T10:19:07;37.66;19.24
75281;HTU21D;63874;47.230;39.620;2023-06-10T10:21:38;38.30;18.54
75281;HTU21D;63874;47.230;39.620;2023-06-10T10:24:12;38.73;17.54
75281;HTU21D;63874;47.230;39.620;2023-06-10T10:26:41;38.54;17.31
75281;HTU21D;63874;47.230;39.620;2023-06-10T10:31:50;37.03;19.18
75281;HTU21D;63874;47.230;39.620;2023-06-10T10:34:44;36.57;20.18
75281;HTU21D;63874;47.230;39.620;2023-06-10T10:37:11;36.48;20.50
75281;HTU21D;63874;47.230;39.620;2023-06-10T10:39:37;36.29;20.81
75281;HTU21D;63874;47.230;39.620;2023-06-10T10:42:04;35.98;21.22
75281;HTU21D;63874;47.230;39.620;2023-06-10T10:44:31;35.62;21.47
75281;HTU21D;63874;47.230;39.620;2023-06-10T10:47:02;35.73;21.82
75281;HTU21D;63874;47.230;39.620;2023-06-10T10:49:30;36.82;21.11
75281;HTU21D;63874;47.230;39.620;2023-06-10T10:52:11;37.93;19.90
75281;HTU21D;63874;47.230;39.620;2023-06-10T10:54:43;38.76;18.60
75281;HTU21D;63874;47.230;39.620;2023-06-10T10:57:10;39.42;17.63
75281;HTU21D;63874;47.230;39.620;2023-06-10T10:59:59;40.02;16.85
75281;HTU21D;63874;47.230;39.620;2023-06-10T11:02:33;40.35;16.29
75281;HTU21D;63874;47.230;39.620;2023-06-10T11:05:09;40.45;15.75
75281;HTU21D;63874;47.230;39.620;2023-06-10T11:07:37;39.83;15.61
75281;HTU21D;63874;47.230;39.620;2023-06-10T11:10:07;38.59;16.45
75281;HTU21D;63874;47.230;39.620;2023-06-10T11:15:13;37.01;18.70
75281;HTU21D;63874;47.230;39.620;2023-06-10T11:18:07;37.11;18.49
75281;HTU21D;63874;47.230;39.620;2023-06-10T11:26:16;37.07;18.15
75281;HTU21D;63874;47.230;39.620;2023-06-10T11:31:40;38.29;16.64
75281;HTU21D;63874;47.230;39.620;2023-06-10T11:34:13;38.82;15.97
75281;HTU21D;63874;47.230;39.620;2023-06-10T11:36:41;38.78;15.68
75281;HTU21D;63874;47.230;39.620;2023-06-10T11:39:09;38.53;15.74
75281;HTU21D;63874;47.230;39.620;2023-06-10T11:41:37;38.82;14.88
75281;HTU21D;63874;47.230;39.620;2023-06-10T11:44:08;39.03;14.40
75281;HTU21D;63874;47.230;39.620;2023-06-10T11:46:35;39.22;14.07
75281;HTU21D;63874;47.230;39.620;2023-06-10T11:49:03;39.28;13.97
75281;HTU21D;63874;47.230;39.620;2023-06-10T11:51:33;39.30;14.19
75281;HTU21D;63874;47.230;39.620;2023-06-10T11:54:07;39.54;14.23
75281;HTU21D;63874;47.230;39.620;2023-06-10T11:56:36;39.94;14.06
75281;HTU21D;63874;47.230;39.620;2023-06-10T11:59:06;40.55;13.58
75281;HTU21D;63874;47.230;39.620;2023-06-10T12:01:37;40.87;12.88
75281;HTU21D;63874;47.230;39.620;2023-06-10T12:04:13;40.90;12.70
75281;HTU21D;63874;47.230;39.620;2023-06-10T12:09:21;40.50;12.53
75281;HTU21D;63874;47.230;39.620;2023-06-10T12:11:57;40.24;12.72
75281;HTU21D;63874;47.230;39.620;2023-06-10T12:19:59;40.38;12.33
75281;HTU21D;63874;47.230;39.620;2023-06-10T12:22:25;40.15;12.71
75281;HTU21D;63874;47.230;39.620;2023-06-10T12:27:58;40.76;12.46
75281;HTU21D;63874;47.230;39.620;2023-06-10T12:30:27;40.67;11.74
75281;HTU21D;63874;47.230;39.620;2023-06-10T12:32:53;40.43;11.84
75281;HTU21D;63874;47.230;39.620;2023-06-10T12:35:23;39.88;11.68
75281;HTU21D;63874;47.230;39.620;2023-06-10T12:38:00;39.05;12.07
75281;HTU21D;63874;47.230;39.620;2023-06-10T12:40:37;38.85;12.62
75281;HTU21D;63874;47.230;39.620;2023-06-10T12:43:05;38.86;12.52
75281;HTU21D;63874;47.230;39.620;2023-06-10T12:45:39;38.51;12.92
75281;HTU21D;63874;47.230;39.620;2023-06-10T12:48:10;38.55;13.35
75281;HTU21D;63874;47.230;39.620;2023-06-10T12:50:58;38.04;13.85
75281;HTU21D;63874;47.230;39.620;2023-06-10T12:53:25;37.14;15.00
75281;HTU21D;63874;47.230;39.620;2023-06-10T12:55:58;36.80;15.78
75281;HTU21D;63874;47.230;39.620;2023-06-10T12:58:24;36.41;15.90
75281;HTU21D;63874;47.230;39.620;2023-06-10T13:00:50;35.58;16.72
75281;HTU21D;63874;47.230;39.620;2023-06-10T13:03:45;34.56;17.83
75281;HTU21D;63874;47.230;39.620;2023-06-10T13:06:11;33.88;18.45
75281;HTU21D;63874;47.230;39.620;2023-06-10T13:08:37;33.29;18.87
75281;HTU21D;63874;47.230;39.620;2023-06-10T13:11:03;32.84;18.89
75281;HTU21D;63874;47.230;39.620;2023-06-10T13:13:28;32.40;19.29
75281;HTU21D;63874;47.230;39.620;2023-06-10T13:15:54;32.04;19.86
75281;HTU21D;63874;47.230;39.620;2023-06-10T13:18:20;31.84;20.66
75281;HTU21D;63874;47.230;39.620;2023-06-10T13:20:46;31.66;21.34
75281;HTU21D;63874;47.230;39.620;2023-06-10T13:23:12;31.43;22.06
75281;HTU21D;63874;47.230;39.620;2023-06-10T13:25:40;31.31;22.47
75281;HTU21D;63874;47.230;39.620;2023-06-10T13:28:07;31.16;22.77
75281;HTU21D;63874;47.230;39.620;2023-06-10T13:30:32;30.98;22.53
75281;HTU21D;63874;47.230;39.620;2023-06-10T13:32:58;30.79;22.72
75281;HTU21D;63874;47.230;39.620;2023-06-10T13:35:24;30.59;22.88
75281;HTU21D;63874;47.230;39.620;2023-06-10T13:37:50;30.45;22.92
75281;HTU21D;63874;47.230;39.620;2023-06-10T13:40:16;30.30;23.15
75281;HTU21D;63874;47.230;39.620;2023-06-10T13:42:42;30.12;23.41
75281;HTU21D;63874;47.230;39.620;2023-06-10T13:45:08;29.96;23.72
75281;HTU21D;63874;47.230;39.620;2023-06-10T13:47:34;29.88;23.85
75281;HTU21D;63874;47.230;39.620;2023-06-10T13:50:00;29.81;23.99
75281;HTU21D;63874;47.230;39.620;2023-06-10T13:52:26;29.75;24.01
75281;HTU21D;63874;47.230;39.620;2023-06-10T13:54:52;29.70;24.01
75281;HTU21D;63874;47.230;39.620;2023-06-10T13:57:18;29.63;24.11
75281;HTU21D;63874;47.230;39.620;2023-06-10T13:59:44;29.63;24.25
75281;HTU21D;63874;47.230;39.620;2023-06-10T14:02:10;29.66;24.14
75281;HTU21D;63874;47.230;39.620;2023-06-10T14:04:36;29.62;24.18
75281;HTU21D;63874;47.230;39.620;2023-06-10T14:07:02;29.59;24.55
75281;HTU21D;63874;47.230;39.620;2023-06-10T14:09:28;29.58;24.72
75281;HTU21D;63874;47.230;39.620;2023-06-10T14:11:54;29.64;24.88
75281;HTU21D;63874;47.230;39.620;2023-06-10T14:14:20;29.74;25.08
75281;HTU21D;63874;47.230;39.620;2023-06-10T14:16:46;29.78;25.21
75281;HTU21D;63874;47.230;39.620;2023-06-10T14:19:20;29.85;25.14
75281;HTU21D;63874;47.230;39.620;2023-06-10T14:21:46;29.89;24.90
75281;HTU21D;63874;47.230;39.620;2023-06-10T14:24:12;29.88;24.91
75281;HTU21D;63874;47.230;39.620;2023-06-10T14:26:41;29.82;25.03
75281;HTU21D;63874;47.230;39.620;2023-06-10T14:29:07;29.83;25.11
75281;HTU21D;63874;47.230;39.620;2023-06-10T14:31:34;29.77;25.32
75281;HTU21D;63874;47.230;39.620;2023-06-10T14:34:03;29.78;25.47
75281;HTU21D;63874;47.230;39.620;2023-06-10T14:36:28;29.80;25.73
75281;HTU21D;63874;47.230;39.620;2023-06-10T14:38:54;29.80;25.91
75281;HTU21D;63874;47.230;39.620;2023-06-10T14:41:22;29.80;26.07
75281;HTU21D;63874;47.230;39.620;2023-06-10T14:43:48;29.79;26.16
75281;HTU21D;63874;47.230;39.620;2023-06-10T14:46:14;29.75;26.33
75281;HTU21D;63874;47.230;39.620;2023-06-10T14:48:39;29.66;26.39
75281;HTU21D;63874;47.230;39.620;2023-06-10T14:51:05;29.54;26.46
75281;HTU21D;63874;47.230;39.620;2023-06-10T14:53:32;29.44;26.71
75281;HTU21D;63874;47.230;39.620;2023-06-10T14:55:58;29.36;26.78
75281;HTU21D;63874;47.230;39.620;2023-06-10T14:58:24;29.26;26.88
75281;HTU21D;63874;47.230;39.620;2023-06-10T15:00:50;29.17;27.06
75281;HTU21D;63874;47.230;39.620;2023-06-10T15:03:16;29.11;27.34
75281;HTU21D;63874;47.230;39.620;2023-06-10T15:05:45;29.05;27.57
75281;HTU21D;63874;47.230;39.620;2023-06-10T15:08:20;29.00;27.74
75281;HTU21D;63874;47.230;39.620;2023-06-10T15:10:46;28.94;27.85
75281;HTU21D;63874;47.230;39.620;2023-06-10T15:13:13;28.91;27.71
75281;HTU21D;63874;47.230;39.620;2023-06-10T15:15:39;28.78;27.86
75281;HTU21D;63874;47.230;39.620;2023-06-10T15:18:05;28.72;27.91
75281;HTU21D;63874;47.230;39.620;2023-06-10T15:20:31;28.65;28.16
75281;HTU21D;63874;47.230;39.620;2023-06-10T15:22:57;28.63;28.33
75281;HTU21D;63874;47.230;39.620;2023-06-10T15:25:32;28.62;28.26
75281;HTU21D;63874;47.230;39.620;2023-06-10T15:27:59;28.58;28.15
75281;HTU21D;63874;47.230;39.620;2023-06-10T15:30:25;28.52;27.95
75281;HTU21D;63874;47.230;39.620;2023-06-10T15:32:51;28.49;28.09
75281;HTU21D;63874;47.230;39.620;2023-06-10T15:35:17;28.45;28.19
75281;HTU21D;63874;47.230;39.620;2023-06-10T15:37:43;28.40;28.26